createdAt,value
2022-09-13T00:03:57.668Z,25.20
2022-09-13T00:08:02.205Z,17.98
2022-09-13T00:12:35.904Z,29.45
2022-09-13T00:16:39.032Z,19.52
2022-09-13T00:20:42.289Z,34.35
2022-09-13T00:24:47.014Z,25.25
2022-09-13T00:28:51.931Z,22.23
2022-09-13T00:33:25.999Z,23.48
2022-09-13T00:37:29.082Z,21.38
2022-09-13T00:41:33.751Z,21.38
2022-09-13T00:45:37.155Z,46.38
2022-09-13T00:49:42.335Z,34.15
2022-09-13T00:53:48.811Z,28.73
2022-09-13T00:58:22.566Z,25.08
2022-09-13T01:02:28.709Z,25.15
2022-09-13T01:06:34.810Z,33.85
2022-09-13T01:10:40.382Z,32.63
2022-09-13T01:14:44.830Z,25.35
2022-09-13T01:19:25.998Z,21.92
2022-09-13T01:24:06.807Z,25.17
2022-09-13T01:28:40.447Z,22.75
2022-09-13T01:33:24.409Z,20.52
2022-09-13T01:37:48.102Z,17.05
2022-09-13T01:42:02.497Z,21.20
2022-09-13T01:46:07.491Z,23.02
2022-09-13T01:50:17.190Z,25.58
2022-09-13T01:54:26.086Z,24.27
2022-09-13T01:58:58.334Z,35.83
2022-09-13T02:03:07.200Z,26.10
2022-09-13T02:07:15.422Z,25.53
2022-09-13T02:11:21.055Z,32.70
2022-09-13T02:20:46.231Z,18.30
2022-09-13T02:24:56.995Z,26.55
2022-09-13T02:29:03.321Z,25.52
2022-09-13T02:33:11.208Z,16.42
2022-09-13T02:37:14.853Z,18.20
2022-09-13T02:41:27.891Z,20.63
2022-09-13T02:45:34.921Z,19.00
2022-09-13T02:49:51.794Z,17.07
2022-09-13T02:54:24.356Z,17.98
2022-09-13T02:58:35.624Z,19.42
2022-09-13T03:02:41.060Z,18.38
2022-09-13T03:07:15.124Z,17.80
2022-09-13T03:11:31.170Z,48.93
2022-09-13T03:15:48.854Z,301.20
2022-09-13T03:20:07.157Z,452.97
2022-09-13T03:24:39.184Z,258.10
2022-09-13T03:28:54.995Z,1068.30
2022-09-13T03:33:08.421Z,107.20
2022-09-13T03:37:35.136Z,76.50
2022-09-13T03:41:43.424Z,894.92
2022-09-13T03:45:50.448Z,1079.10
2022-09-13T03:49:58.255Z,1037.10
2022-09-13T03:54:04.883Z,994.00
2022-09-13T03:58:35.336Z,389.77
2022-09-13T04:02:38.393Z,102.90
2022-09-13T04:06:43.180Z,373.23
2022-09-13T04:10:46.211Z,224.70
2022-09-13T04:14:49.409Z,176.32
2022-09-13T04:18:52.389Z,231.10
2022-09-13T04:22:57.965Z,345.98
2022-09-13T04:27:31.892Z,206.23
2022-09-13T04:31:35.078Z,365.27
2022-09-13T04:35:39.236Z,517.10
2022-09-13T04:40:13.274Z,478.48
2022-09-13T04:44:18.900Z,126.22
2022-09-13T04:48:21.968Z,124.00
2022-09-13T04:52:25.230Z,127.70
2022-09-13T04:56:28.685Z,110.20
2022-09-13T05:00:34.166Z,132.60
2022-09-13T05:04:37.215Z,141.85
2022-09-13T05:08:40.483Z,211.13
2022-09-13T05:13:14.156Z,200.13
2022-09-13T05:17:18.730Z,105.28
2022-09-13T05:21:22.562Z,392.88
2022-09-13T05:25:56.865Z,238.45
2022-09-13T05:29:59.884Z,260.13
2022-09-13T05:34:07.394Z,256.05
2022-09-13T05:38:10.431Z,342.35
2022-09-13T05:42:47.385Z,322.17
2022-09-13T05:46:50.413Z,163.50
2022-09-13T05:50:58.128Z,123.18
2022-09-13T05:55:01.680Z,216.20
2022-09-13T05:59:04.897Z,241.27
2022-09-13T06:03:07.952Z,250.60
2022-09-13T06:07:14.213Z,135.80
2022-09-13T06:11:47.826Z,251.02
2022-09-13T06:15:50.974Z,275.65
2022-09-13T06:19:54.011Z,373.02
2022-09-13T06:23:58.713Z,172.05
2022-09-13T06:28:01.705Z,167.50
2022-09-13T06:32:05.345Z,379.38
2022-09-13T06:36:10.280Z,277.42
2022-09-13T06:40:46.950Z,286.85
2022-09-13T06:44:51.420Z,250.98
2022-09-13T06:48:55.445Z,114.60
2022-09-13T06:52:58.600Z,190.98
2022-09-13T06:57:35.299Z,142.50
2022-09-13T07:01:41.343Z,139.65
2022-09-13T07:05:44.444Z,59.85
2022-09-13T07:09:47.536Z,52.72
2022-09-13T07:14:24.485Z,52.80
2022-09-13T07:18:28.867Z,34.45
2022-09-13T07:22:31.853Z,28.33
2022-09-13T07:27:08.486Z,24.75
2022-09-13T07:31:13.504Z,23.02
2022-09-13T07:35:18.250Z,20.58
2022-09-13T07:39:51.983Z,23.80
2022-09-13T07:43:55.429Z,25.58
2022-09-13T07:48:33.372Z,17.80
2022-09-13T07:52:38.188Z,20.38
2022-09-13T07:56:42.312Z,19.70
2022-09-13T08:01:15.913Z,16.02
2022-09-13T08:05:18.994Z,15.98
2022-09-13T08:09:23.403Z,18.88
2022-09-13T08:13:26.647Z,16.52
2022-09-13T08:17:30.366Z,16.13
2022-09-13T08:21:35.245Z,13.55
2022-09-13T08:25:40.800Z,14.35
2022-09-13T08:30:14.788Z,15.13
2022-09-13T08:34:18.245Z,11.95
2022-09-13T08:38:21.299Z,13.05
2022-09-13T08:43:04.119Z,12.13
2022-09-13T08:47:27.862Z,11.77
2022-09-13T08:51:36.607Z,10.00
2022-09-13T08:55:48.954Z,9.35
2022-09-13T09:00:00.569Z,9.70
2022-09-13T09:04:13.490Z,7.68
2022-09-13T09:08:31.323Z,7.05
2022-09-13T09:12:55.117Z,8.25
2022-09-13T09:17:04.180Z,7.90
2022-09-13T09:21:14.009Z,7.10
2022-09-13T09:25:41.523Z,5.80
2022-09-13T09:29:46.308Z,7.50
2022-09-13T09:34:09.157Z,5.43
2022-09-13T09:38:34.264Z,5.70
2022-09-13T09:42:42.866Z,6.20
2022-09-13T09:46:50.263Z,5.90
2022-09-13T09:50:58.360Z,4.13
2022-09-13T09:55:30.305Z,5.50
2022-09-13T09:59:34.470Z,11.63
2022-09-13T10:03:37.493Z,6.65
2022-09-13T10:08:26.184Z,6.35
2022-09-13T10:12:32.546Z,6.53
2022-09-13T10:16:35.625Z,4.88
2022-09-13T10:21:22.840Z,4.43
2022-09-13T10:25:28.053Z,3.88
2022-09-13T10:29:32.027Z,5.00
2022-09-13T10:33:38.233Z,4.45
2022-09-13T10:37:45.512Z,3.60
2022-09-13T10:41:54.965Z,7.25
2022-09-13T10:45:59.762Z,3.47
2022-09-13T10:50:21.767Z,4.28
2022-09-13T10:54:25.599Z,4.68
2022-09-13T10:58:30.396Z,3.83
2022-09-13T11:03:00.535Z,5.97
2022-09-13T11:07:16.611Z,5.07
2022-09-13T11:11:27.534Z,3.97
2022-09-13T11:15:41.546Z,3.90
2022-09-13T11:20:07.033Z,3.83
2022-09-13T11:24:40.429Z,7.10
2022-09-13T11:28:52.434Z,5.22
2022-09-13T11:33:29.019Z,3.55
2022-09-13T11:37:42.788Z,3.63
2022-09-13T11:41:59.033Z,3.60
2022-09-13T11:46:28.390Z,4.07
2022-09-13T11:50:45.853Z,5.22
2022-09-13T11:55:04.380Z,4.55
2022-09-13T11:59:20.078Z,6.55
2022-09-13T12:03:49.096Z,3.72
2022-09-13T12:07:59.066Z,3.92
2022-09-13T12:12:06.694Z,3.60
2022-09-13T12:16:14.101Z,7.07
2022-09-13T12:20:22.996Z,6.65
2022-09-13T12:24:41.759Z,7.07
2022-09-13T12:28:50.438Z,4.38
2022-09-13T12:33:21.461Z,4.55
2022-09-13T12:37:39.742Z,4.88
2022-09-13T12:41:53.357Z,4.43
2022-09-13T12:46:28.091Z,4.65
2022-09-13T12:50:48.313Z,4.75
2022-09-13T12:55:46.805Z,3.60
2022-09-13T13:00:02.648Z,4.45
2022-09-13T13:04:26.824Z,5.88
2022-09-13T13:08:31.394Z,4.68
2022-09-13T13:12:37.183Z,4.80
2022-09-13T13:16:41.663Z,6.45
2022-09-13T13:21:05.285Z,4.40
2022-09-13T13:25:33.377Z,6.82
2022-09-13T13:29:36.734Z,4.95
2022-09-13T13:34:16.956Z,4.00
2022-09-13T13:38:48.947Z,4.10
2022-09-13T13:42:52.795Z,5.47
2022-09-13T13:47:16.356Z,7.00
2022-09-13T13:52:13.934Z,5.22
2022-09-13T13:56:47.964Z,6.03
2022-09-13T14:00:54.200Z,6.60
2022-09-13T14:05:31.847Z,10.82
2022-09-13T14:09:41.112Z,5.65
2022-09-13T14:13:58.185Z,5.40
2022-09-13T14:18:39.427Z,4.70
2022-09-13T14:22:45.091Z,7.30
2022-09-13T14:26:49.642Z,5.10
2022-09-13T14:31:24.959Z,5.97
2022-09-13T14:35:30.743Z,4.70
2022-09-13T14:39:33.986Z,4.32
2022-09-13T14:44:18.854Z,6.88
2022-09-13T14:48:31.731Z,4.55
2022-09-13T14:52:37.759Z,6.82
2022-09-13T14:56:43.752Z,5.10
2022-09-13T15:00:52.554Z,5.20
2022-09-13T15:04:59.241Z,4.57
2022-09-13T15:09:34.171Z,6.97
2022-09-13T15:13:37.993Z,4.50
2022-09-13T15:17:54.105Z,7.90
2022-09-13T15:22:16.511Z,7.90
2022-09-13T15:26:31.585Z,4.22
2022-09-13T15:30:41.790Z,3.75
2022-09-13T15:35:18.704Z,4.90
2022-09-13T15:39:23.395Z,5.10
2022-09-13T15:43:26.527Z,4.20
2022-09-13T15:47:29.791Z,3.92
2022-09-13T15:52:06.774Z,4.47
2022-09-13T15:56:16.831Z,7.68
2022-09-13T16:00:22.067Z,5.18
2022-09-13T16:04:56.280Z,6.00
2022-09-13T16:09:00.425Z,4.85
2022-09-13T16:13:05.395Z,6.43
2022-09-13T16:17:12.681Z,5.55
2022-09-13T16:21:43.947Z,8.70
2022-09-13T16:25:47.815Z,7.00
2022-09-13T16:29:52.201Z,4.97
2022-09-13T16:33:55.671Z,7.60
2022-09-13T16:37:58.853Z,4.63
2022-09-13T16:42:01.907Z,3.97
2022-09-13T16:46:10.050Z,5.43
2022-09-13T16:50:13.123Z,6.45
2022-09-13T16:54:16.238Z,7.60
2022-09-13T16:58:53.566Z,5.15
2022-09-13T17:02:58.322Z,12.40
2022-09-13T17:07:02.712Z,4.38
2022-09-13T17:11:07.770Z,4.25
2022-09-13T17:15:44.903Z,4.65
2022-09-13T17:19:49.539Z,4.43
2022-09-13T17:23:53.234Z,6.68
2022-09-13T17:27:56.319Z,5.07
2022-09-13T17:31:59.969Z,4.72
2022-09-13T17:36:07.531Z,8.15
2022-09-13T17:40:10.797Z,6.28
2022-09-13T17:44:47.930Z,7.50
2022-09-13T17:48:52.303Z,4.60
2022-09-13T17:52:56.962Z,5.43
2022-09-13T17:57:00.438Z,7.57
2022-09-13T18:01:37.624Z,7.13
2022-09-13T18:05:40.697Z,8.40
2022-09-13T18:09:45.402Z,5.50
2022-09-13T18:13:49.086Z,6.43
2022-09-13T18:17:52.114Z,6.90
2022-09-13T18:21:55.312Z,16.45
2022-09-13T18:26:29.150Z,8.93
2022-09-13T18:30:33.650Z,12.88
2022-09-13T18:34:36.697Z,10.88
2022-09-13T18:39:13.175Z,11.57
2022-09-13T18:43:16.269Z,13.52
2022-09-13T18:47:20.690Z,13.55
2022-09-13T18:51:26.287Z,12.43
2022-09-13T18:56:03.770Z,12.88
2022-09-13T19:00:08.257Z,12.77
2022-09-13T19:04:15.176Z,11.73
2022-09-13T19:08:49.852Z,14.05
2022-09-13T19:12:52.909Z,10.45
2022-09-13T19:17:00.533Z,13.65
2022-09-13T19:21:33.358Z,11.90
2022-09-13T19:25:36.453Z,12.38
2022-09-13T19:29:39.649Z,8.98
2022-09-13T19:34:17.647Z,13.10
2022-09-13T19:38:22.119Z,17.20
2022-09-13T19:42:25.551Z,19.45
2022-09-13T19:51:26.991Z,13.40
2022-09-13T19:55:33.148Z,11.77
2022-09-13T20:00:07.641Z,17.02
2022-09-13T20:04:12.874Z,14.85
2022-09-13T20:08:16.179Z,18.15
2022-09-13T20:12:24.097Z,20.88
2022-09-13T20:16:28.854Z,18.63
2022-09-13T20:20:31.925Z,18.88
2022-09-13T20:24:34.932Z,22.00
2022-09-13T20:28:39.781Z,16.20
2022-09-13T20:32:43.134Z,14.90
2022-09-13T20:37:20.062Z,16.65
2022-09-13T20:41:23.288Z,17.38
2022-09-13T20:45:27.890Z,18.60
2022-09-13T20:49:30.988Z,16.27
2022-09-13T20:53:34.768Z,14.73
2022-09-13T20:57:38.231Z,16.48
2022-09-13T21:01:42.700Z,17.67
2022-09-13T21:05:45.768Z,16.92
2022-09-13T21:09:48.907Z,17.15
2022-09-13T21:14:21.961Z,19.05
2022-09-13T21:18:26.343Z,20.02
2022-09-13T21:22:29.462Z,17.98
2022-09-13T21:26:33.580Z,23.52
2022-09-13T21:30:36.721Z,16.52
2022-09-13T21:34:41.192Z,22.27
2022-09-13T21:38:44.544Z,20.67
2022-09-13T21:43:18.339Z,19.17
2022-09-13T21:47:21.364Z,19.60
2022-09-13T21:51:27.131Z,21.23
2022-09-13T21:55:31.445Z,22.60
2022-09-13T21:59:34.446Z,24.42
2022-09-13T22:04:13.172Z,20.17
2022-09-13T22:08:17.590Z,23.05
2022-09-13T22:12:23.162Z,24.17
2022-09-13T22:16:28.439Z,23.23
2022-09-13T22:20:31.541Z,23.98
2022-09-13T22:25:10.608Z,24.35
2022-09-13T22:29:13.877Z,20.90
2022-09-13T22:33:16.907Z,22.67
2022-09-13T22:37:19.949Z,26.95
2022-09-13T22:41:26.274Z,20.77
2022-09-13T22:46:03.267Z,19.60
2022-09-13T22:50:07.146Z,23.00
2022-09-13T22:54:10.139Z,26.90
2022-09-13T22:58:15.069Z,23.77
2022-09-13T23:02:18.142Z,22.92
2022-09-13T23:06:55.040Z,28.92
2022-09-13T23:10:58.292Z,26.75
2022-09-13T23:15:02.747Z,29.08
2022-09-13T23:19:06.457Z,28.40
2022-09-13T23:23:10.949Z,30.83
2022-09-13T23:27:44.302Z,25.77
2022-09-13T23:31:49.150Z,34.22
2022-09-13T23:35:58.648Z,32.13
2022-09-13T23:40:01.861Z,35.63
2022-09-13T23:44:05.766Z,32.00
2022-09-13T23:48:10.294Z,31.58
2022-09-13T23:52:47.033Z,35.63
2022-09-13T23:56:50.152Z,30.60
